Terminal Aerodrome Forecast
Issued by NWS

Home | Current Version | Previous Version | Text Only | Print | Product List | Glossary On
Versions: 1 2 3 4 5 6 7 8 9 10 11 12 13 14 15 16 17
000
FTAK31 PAFA 011323 AAA
TAFAUN
TAF AMD
PAUN 011323Z 0113/0212 08032G42KT P6SM SCT120 OVC200
     FM020300 08023G30KT P6SM SCT120 OVC200=

USA.gov is the U.S. government's official web portal to all federal, state and local government web resources and services.